Webster, Illinois
Current Conditions -  °F | °C
As of 10:35 AM on Thursday 29 Jan 2015 (Local Time) from KMQB Reporting Station
Overcast Overcast  
Wind Chill: 27°   Ceiling: 1700
Heat Index: 37°   Visibility: 10mi
Dew Point: 32°   Wind: 17mph
Humidity: 84%   Direction: 310°NW
Pressure: 30.1"   Gusts: 29mph
Location:  40.4155°N, 91.0269°W
Report Text: KMQB 291635Z AUTO 31015G25KT 10SM OVC017 03/00 A3010 RMK AO2 T00250001
Loading
Personal Weather Stations






























Interactive Weather Map New forecast layout! Learn more

10-Day Weather Forecast

Advertisements
Track Severe Weather on mobile